Terminal Aerodrome Forecast
Issued by NWS

Home | Current Version | Previous Version | Text Only | Print | Product List | Glossary Off
Versions: 1 2 3 4 5 6 7 8 9 10 11 12 13 14 15

000
FTUS43 KBIS 160500
TAFDIK
TAF
KDIK 160528Z 1606/1706 34012KT P6SM SCT050 OVC090
     FM160900 36010KT P6SM VCSH BKN050 OVC070
     FM161200 35012KT P6SM VCSH BKN080 OVC100
     FM161500 36014G18KT P6SM BKN090
     FM162100 36010KT P6SM SCT100=

USA.gov is the U.S. government's official web portal to all federal, state and local government web resources and services.